createdAt,value
2023-10-28T00:00:27.652Z,987.14
2023-10-28T00:01:28.527Z,987.14
2023-10-28T00:02:30.388Z,987.13
2023-10-28T00:03:30.272Z,987.13
2023-10-28T00:04:31.179Z,987.13
2023-10-28T00:05:31.997Z,987.15
2023-10-28T00:06:32.867Z,987.15
2023-10-28T00:07:33.718Z,987.16
2023-10-28T00:08:34.692Z,987.16
2023-10-28T00:09:35.549Z,987.16
2023-10-28T00:10:36.402Z,987.16
2023-10-28T00:11:37.267Z,987.17
2023-10-28T00:12:38.106Z,987.18
2023-10-28T00:13:38.970Z,987.19
2023-10-28T00:14:39.873Z,987.18
2023-10-28T00:15:40.725Z,987.18
2023-10-28T00:16:41.636Z,987.20
2023-10-28T00:17:42.526Z,987.20
2023-10-28T00:18:43.372Z,987.21
2023-10-28T00:19:45.156Z,987.23
2023-10-28T00:20:45.124Z,987.24
2023-10-28T00:21:45.968Z,987.25
2023-10-28T00:22:46.868Z,987.26
2023-10-28T00:23:47.773Z,987.28
2023-10-28T00:24:48.629Z,987.28
2023-10-28T00:25:49.495Z,987.28
2023-10-28T00:26:50.384Z,987.28
2023-10-28T00:27:51.245Z,987.27
2023-10-28T00:28:52.138Z,987.26
2023-10-28T00:29:53.484Z,987.24
2023-10-28T00:30:53.549Z,987.23
2023-10-28T00:31:54.386Z,987.24
2023-10-28T00:32:55.261Z,987.24
2023-10-28T00:33:56.124Z,987.25
2023-10-28T00:34:57.025Z,987.25
2023-10-28T00:35:57.902Z,987.25
2023-10-28T00:36:58.722Z,987.24
2023-10-28T00:37:59.651Z,987.22
2023-10-28T00:39:00.177Z,987.22
2023-10-28T00:40:01.044Z,987.22
2023-10-28T00:41:01.991Z,987.23
2023-10-28T00:42:02.864Z,987.24
2023-10-28T00:43:03.717Z,987.26
2023-10-28T00:44:04.612Z,987.27
2023-10-28T00:45:05.500Z,987.28
2023-10-28T00:46:06.415Z,987.29
2023-10-28T00:47:06.848Z,987.29
2023-10-28T00:48:07.778Z,987.29
2023-10-28T00:49:08.609Z,987.29
2023-10-28T00:50:09.494Z,987.29
2023-10-28T00:51:10.382Z,987.32
2023-10-28T00:52:11.230Z,987.34
2023-10-28T00:53:12.160Z,987.34
2023-10-28T00:54:13.151Z,987.34
2023-10-28T00:55:14.022Z,987.33
2023-10-28T00:56:14.894Z,987.32
2023-10-28T00:57:15.742Z,987.33
2023-10-28T00:58:16.574Z,987.33
2023-10-28T00:59:17.417Z,987.32
2023-10-28T01:00:18.245Z,987.31
2023-10-28T01:01:19.497Z,987.31
2023-10-28T01:02:19.963Z,987.32
2023-10-28T01:03:20.520Z,987.32
2023-10-28T01:04:20.912Z,987.32
2023-10-28T01:05:21.762Z,987.33
2023-10-28T01:06:22.665Z,987.31
2023-10-28T01:07:23.498Z,987.30
2023-10-28T01:08:24.354Z,987.31
2023-10-28T01:09:25.304Z,987.30
2023-10-28T01:10:26.130Z,987.29
2023-10-28T01:11:27.046Z,987.27
2023-10-28T01:12:27.909Z,987.28
2023-10-28T01:13:28.729Z,987.29
2023-10-28T01:14:29.568Z,987.30
2023-10-28T01:15:30.457Z,987.31
2023-10-28T01:16:30.990Z,987.31
2023-10-28T01:17:31.890Z,987.30
2023-10-28T01:18:32.836Z,987.27
2023-10-28T01:19:33.250Z,987.26
2023-10-28T01:20:34.114Z,987.24
2023-10-28T01:21:34.993Z,987.23
2023-10-28T01:22:35.834Z,987.24
2023-10-28T01:23:36.724Z,987.24
2023-10-28T01:24:37.690Z,987.23
2023-10-28T01:25:38.526Z,987.22
2023-10-28T01:26:39.439Z,987.21
2023-10-28T01:27:40.271Z,987.20
2023-10-28T01:28:41.135Z,987.19
2023-10-28T01:29:41.972Z,987.19
2023-10-28T01:30:42.822Z,987.20
2023-10-28T01:31:43.840Z,987.19
2023-10-28T01:32:44.271Z,987.19
2023-10-28T01:33:45.156Z,987.17
2023-10-28T01:34:46.059Z,987.17
2023-10-28T01:35:46.959Z,987.16
2023-10-28T01:36:47.851Z,987.18
2023-10-28T01:37:48.712Z,987.20
2023-10-28T01:38:49.567Z,987.20
2023-10-28T01:39:50.521Z,987.20
2023-10-28T01:40:51.368Z,987.22
2023-10-28T01:41:52.244Z,987.22
2023-10-28T01:42:53.106Z,987.23
2023-10-28T01:43:53.960Z,987.24
2023-10-28T01:44:54.802Z,987.24
2023-10-28T01:45:55.700Z,987.26
2023-10-28T01:46:56.572Z,987.29
2023-10-28T01:47:57.550Z,987.29
2023-10-28T01:48:58.416Z,987.28
2023-10-28T01:49:59.267Z,987.28
2023-10-28T01:51:00.098Z,987.28
2023-10-28T01:52:00.943Z,987.29
2023-10-28T01:53:01.854Z,987.28
2023-10-28T01:54:02.697Z,987.29
2023-10-28T01:55:03.655Z,987.29
2023-10-28T01:56:04.511Z,987.31
2023-10-28T01:57:05.406Z,987.32
2023-10-28T01:58:06.258Z,987.32
2023-10-28T01:59:07.169Z,987.32
2023-10-28T02:00:08.021Z,987.30
2023-10-28T02:01:08.901Z,987.28
2023-10-28T02:02:09.829Z,987.26
2023-10-28T02:03:10.442Z,987.27
2023-10-28T02:04:10.845Z,987.26
2023-10-28T02:05:11.744Z,987.27
2023-10-28T02:06:12.643Z,987.27
2023-10-28T02:07:13.481Z,987.26
2023-10-28T02:08:14.428Z,987.25
2023-10-28T02:09:14.803Z,987.24
2023-10-28T02:10:15.755Z,987.24
2023-10-28T02:11:16.625Z,987.24
2023-10-28T02:12:17.477Z,987.26
2023-10-28T02:13:18.341Z,987.27
2023-10-28T02:14:19.192Z,987.28
2023-10-28T02:15:20.022Z,987.30
2023-10-28T02:16:20.856Z,987.29
2023-10-28T02:17:21.707Z,987.30
2023-10-28T02:18:22.613Z,987.30
2023-10-28T02:19:23.451Z,987.29
2023-10-28T02:20:24.314Z,987.29
2023-10-28T02:21:25.144Z,987.30
2023-10-28T02:22:26.019Z,987.30
2023-10-28T02:23:26.876Z,987.30
2023-10-28T02:24:27.720Z,987.31
2023-10-28T02:25:28.663Z,987.31
2023-10-28T02:26:29.496Z,987.31
2023-10-28T02:27:30.316Z,987.30
2023-10-28T02:28:31.200Z,987.30
2023-10-28T02:29:32.044Z,987.29
2023-10-28T02:30:32.866Z,987.28
2023-10-28T02:31:33.749Z,987.28
2023-10-28T02:32:34.632Z,987.28
2023-10-28T02:33:35.789Z,987.29
2023-10-28T02:34:36.124Z,987.30
2023-10-28T02:35:36.961Z,987.33
2023-10-28T02:36:37.794Z,987.30
2023-10-28T02:37:38.641Z,987.32
2023-10-28T02:38:39.511Z,987.33
2023-10-28T02:39:40.349Z,987.35
2023-10-28T02:40:41.304Z,987.36
2023-10-28T02:41:42.143Z,987.38
2023-10-28T02:42:42.982Z,987.40
2023-10-28T02:43:43.873Z,987.41
2023-10-28T02:44:44.742Z,987.41
2023-10-28T02:45:45.656Z,987.40
2023-10-28T02:46:46.141Z,987.39
2023-10-28T02:47:47.133Z,987.40
2023-10-28T02:48:48.040Z,987.41
2023-10-28T02:49:49.258Z,987.42
2023-10-28T02:50:49.716Z,987.44
2023-10-28T02:51:50.575Z,987.44
2023-10-28T02:52:51.500Z,987.45
2023-10-28T02:53:52.409Z,987.45
2023-10-28T02:54:53.242Z,987.47
2023-10-28T02:55:54.254Z,987.48
2023-10-28T02:56:54.655Z,987.48
2023-10-28T02:57:55.495Z,987.50
2023-10-28T02:58:56.444Z,987.49
2023-10-28T02:59:57.322Z,987.49
2023-10-28T03:00:58.295Z,987.49
2023-10-28T03:01:58.715Z,987.49
2023-10-28T03:02:59.733Z,987.49
2023-10-28T03:04:00.655Z,987.49
2023-10-28T03:05:01.547Z,987.47
2023-10-28T03:06:02.456Z,987.46
2023-10-28T03:07:03.365Z,987.46
2023-10-28T03:08:04.350Z,987.47
2023-10-28T03:09:05.286Z,987.48
2023-10-28T03:10:06.167Z,987.49
2023-10-28T03:11:07.140Z,987.51
2023-10-28T03:12:07.527Z,987.52
2023-10-28T03:13:08.366Z,987.51
2023-10-28T03:14:09.257Z,987.51
2023-10-28T03:15:09.719Z,987.51
2023-10-28T03:16:10.689Z,987.49
2023-10-28T03:17:11.599Z,987.50
2023-10-28T03:18:12.472Z,987.50
2023-10-28T03:19:13.353Z,987.50
2023-10-28T03:20:14.233Z,987.50
2023-10-28T03:21:15.081Z,987.51
2023-10-28T03:22:15.909Z,987.51
2023-10-28T03:23:16.859Z,987.51
2023-10-28T03:24:17.310Z,987.51
2023-10-28T03:25:18.151Z,987.51
2023-10-28T03:26:19.026Z,987.48
2023-10-28T03:27:19.847Z,987.49
2023-10-28T03:28:20.718Z,987.47
2023-10-28T03:29:21.662Z,987.47
2023-10-28T03:30:22.569Z,987.47
2023-10-28T03:31:25.283Z,987.48
2023-10-28T03:32:24.295Z,987.48
2023-10-28T03:33:25.137Z,987.48
2023-10-28T03:34:26.028Z,987.48
2023-10-28T03:35:26.868Z,987.48
2023-10-28T03:36:27.695Z,987.49
2023-10-28T03:37:28.521Z,987.49
2023-10-28T03:38:29.353Z,987.50
2023-10-28T03:39:30.225Z,987.50
2023-10-28T03:40:31.053Z,987.50
2023-10-28T03:41:32.010Z,987.50
2023-10-28T03:42:32.838Z,987.49
2023-10-28T03:43:33.669Z,987.50
2023-10-28T03:44:34.567Z,987.50
2023-10-28T03:45:35.428Z,987.49
2023-10-28T03:46:36.281Z,987.49
2023-10-28T03:47:37.205Z,987.50
2023-10-28T03:48:38.037Z,987.51
2023-10-28T03:49:38.935Z,987.52
2023-10-28T03:50:39.764Z,987.53
2023-10-28T03:51:40.598Z,987.54
2023-10-28T03:52:41.491Z,987.53
2023-10-28T03:53:42.358Z,987.54
2023-10-28T03:54:43.228Z,987.55
2023-10-28T03:55:44.160Z,987.55
2023-10-28T03:56:45.056Z,987.57
2023-10-28T03:57:46.420Z,987.57
2023-10-28T03:58:46.783Z,987.58
2023-10-28T03:59:48.866Z,987.59
2023-10-28T04:00:48.181Z,987.59
2023-10-28T04:01:49.082Z,987.60
2023-10-28T04:02:49.975Z,987.59
2023-10-28T04:03:52.150Z,987.58
2023-10-28T04:04:51.546Z,987.60
2023-10-28T04:05:52.392Z,987.57
2023-10-28T04:06:53.303Z,987.58
2023-10-28T04:07:54.130Z,987.59
2023-10-28T04:08:56.232Z,987.58
2023-10-28T04:09:55.554Z,987.57
2023-10-28T04:10:56.395Z,987.57
2023-10-28T04:11:57.295Z,987.57
2023-10-28T04:12:58.122Z,987.57
2023-10-28T04:13:59.025Z,987.58
2023-10-28T04:14:59.924Z,987.58
2023-10-28T04:16:03.222Z,987.57
2023-10-28T04:17:01.599Z,987.56
2023-10-28T04:18:02.516Z,987.55
2023-10-28T04:19:03.389Z,987.55
2023-10-28T04:20:04.249Z,987.54
2023-10-28T04:21:05.379Z,987.54
2023-10-28T04:22:06.139Z,987.54
2023-10-28T04:23:07.128Z,987.54
2023-10-28T04:24:07.684Z,987.54
2023-10-28T04:25:08.536Z,987.53
2023-10-28T04:26:09.483Z,987.53
2023-10-28T04:27:10.476Z,987.53
2023-10-28T04:28:11.314Z,987.53
2023-10-28T04:29:12.319Z,987.52
2023-10-28T04:30:12.687Z,987.52
2023-10-28T04:31:13.591Z,987.51
2023-10-28T04:32:14.508Z,987.50
2023-10-28T04:33:15.372Z,987.49
2023-10-28T04:34:16.245Z,987.47
2023-10-28T04:35:27.106Z,987.46
2023-10-28T04:36:17.882Z,987.46
2023-10-28T04:37:18.705Z,987.45
2023-10-28T04:38:19.577Z,987.46
2023-10-28T04:39:20.432Z,987.45
2023-10-28T04:40:21.284Z,987.46
2023-10-28T04:41:22.181Z,987.47
2023-10-28T04:42:23.124Z,987.48
2023-10-28T04:43:23.968Z,987.50
2023-10-28T04:44:24.822Z,987.51
2023-10-28T04:45:25.666Z,987.52
2023-10-28T04:46:26.517Z,987.52
2023-10-28T04:47:27.381Z,987.52
2023-10-28T04:48:28.226Z,987.53
2023-10-28T04:49:29.070Z,987.54
2023-10-28T04:50:29.944Z,987.55
2023-10-28T04:51:30.788Z,987.55
2023-10-28T04:52:31.616Z,987.55
2023-10-28T04:53:32.433Z,987.55
2023-10-28T04:54:33.264Z,987.55
2023-10-28T04:55:34.152Z,987.56
2023-10-28T04:56:34.995Z,987.55
2023-10-28T04:57:35.971Z,987.56
2023-10-28T04:58:36.803Z,987.53
2023-10-28T04:59:37.664Z,987.54
2023-10-28T05:00:38.565Z,987.55
2023-10-28T05:01:39.434Z,987.56
2023-10-28T05:02:40.301Z,987.56
2023-10-28T05:03:41.160Z,987.56
2023-10-28T05:04:42.023Z,987.57
2023-10-28T05:05:42.923Z,987.55
2023-10-28T05:06:43.764Z,987.55
2023-10-28T05:07:44.682Z,987.55
2023-10-28T05:08:45.551Z,987.56
2023-10-28T05:09:46.750Z,987.57
2023-10-28T05:10:47.240Z,987.57
2023-10-28T05:11:48.125Z,987.59
2023-10-28T05:12:49.077Z,987.62
2023-10-28T05:13:49.909Z,987.63
2023-10-28T05:14:50.780Z,987.65
2023-10-28T05:15:51.680Z,987.66
2023-10-28T05:16:52.567Z,987.68
2023-10-28T05:17:53.483Z,987.68
2023-10-28T05:18:54.322Z,987.67
2023-10-28T05:19:55.166Z,987.67
2023-10-28T05:20:56.048Z,987.68
2023-10-28T05:21:56.891Z,987.68
2023-10-28T05:22:57.759Z,987.68
2023-10-28T05:23:58.656Z,987.67
2023-10-28T05:24:59.504Z,987.67
2023-10-28T05:26:00.426Z,987.68
2023-10-28T05:27:01.270Z,987.69
2023-10-28T05:28:02.256Z,987.71
2023-10-28T05:29:02.628Z,987.72
2023-10-28T05:30:03.576Z,987.74
2023-10-28T05:31:04.412Z,987.75
2023-10-28T05:32:05.314Z,987.76
2023-10-28T05:33:05.794Z,987.77
2023-10-28T05:34:06.641Z,987.77
2023-10-28T05:35:07.555Z,987.77
2023-10-28T05:36:08.396Z,987.78
2023-10-28T05:37:09.238Z,987.79
2023-10-28T05:38:10.230Z,987.79
2023-10-28T05:39:10.577Z,987.81
2023-10-28T05:40:11.457Z,987.80
2023-10-28T05:41:12.386Z,987.80
2023-10-28T05:42:13.275Z,987.81
2023-10-28T05:43:14.228Z,987.81
2023-10-28T05:44:15.076Z,987.81
2023-10-28T05:45:15.968Z,987.81
2023-10-28T05:46:16.815Z,987.80
2023-10-28T05:47:17.799Z,987.80
2023-10-28T05:48:18.172Z,987.80
2023-10-28T05:49:19.091Z,987.82
2023-10-28T05:50:19.946Z,987.81
2023-10-28T05:51:20.820Z,987.82
2023-10-28T05:52:21.662Z,987.83
2023-10-28T05:53:22.512Z,987.85
2023-10-28T05:54:23.415Z,987.86
2023-10-28T05:55:24.252Z,987.86
2023-10-28T05:56:25.095Z,987.88
2023-10-28T05:57:25.953Z,987.88
2023-10-28T05:58:26.907Z,987.89
2023-10-28T05:59:27.763Z,987.90
2023-10-28T06:00:28.626Z,987.90
2023-10-28T06:01:29.614Z,987.91
2023-10-28T06:02:30.522Z,987.93
2023-10-28T06:03:31.385Z,987.94
2023-10-28T06:04:32.297Z,987.96
2023-10-28T06:05:33.134Z,987.97
2023-10-28T06:06:33.990Z,987.96
2023-10-28T06:07:34.832Z,987.98
2023-10-28T06:08:35.650Z,987.99
2023-10-28T06:09:36.514Z,987.99
2023-10-28T06:10:37.403Z,987.98
2023-10-28T06:11:38.286Z,987.99
2023-10-28T06:12:37.846Z,987.99
2023-10-28T06:13:39.796Z,987.99
2023-10-28T06:14:40.642Z,987.99
2023-10-28T06:15:41.469Z,988.00
2023-10-28T06:16:42.415Z,988.01
2023-10-28T06:17:43.314Z,988.02
2023-10-28T06:18:44.164Z,988.01
2023-10-28T06:19:45.113Z,988.00
2023-10-28T06:20:45.505Z,988.00
2023-10-28T06:21:46.008Z,988.00
2023-10-28T06:22:46.923Z,988.00
2023-10-28T06:23:47.754Z,987.99
2023-10-28T06:24:48.635Z,987.98
2023-10-28T06:25:49.500Z,987.98
2023-10-28T06:26:50.375Z,987.99
2023-10-28T06:27:51.235Z,988.00
2023-10-28T06:28:52.229Z,988.01
2023-10-28T06:29:52.724Z,988.02
2023-10-28T06:30:53.596Z,988.03
2023-10-28T06:31:54.493Z,988.04
2023-10-28T06:32:55.351Z,988.04
2023-10-28T06:33:56.215Z,988.03
2023-10-28T06:34:57.129Z,988.05
2023-10-28T06:35:57.954Z,988.06
2023-10-28T06:36:58.854Z,988.07
2023-10-28T06:37:59.774Z,988.07
2023-10-28T06:39:00.655Z,988.08
2023-10-28T06:40:01.498Z,988.08
2023-10-28T06:41:02.384Z,988.10
2023-10-28T06:42:03.231Z,988.10
2023-10-28T06:43:04.100Z,988.10
2023-10-28T06:44:05.065Z,988.11
2023-10-28T06:45:05.903Z,988.12
2023-10-28T06:46:06.890Z,988.12
2023-10-28T06:47:07.318Z,988.14
2023-10-28T06:48:08.195Z,988.16
2023-10-28T06:49:09.077Z,988.17
2023-10-28T06:50:09.992Z,988.18
2023-10-28T06:51:10.614Z,988.19
2023-10-28T06:52:10.958Z,988.19
2023-10-28T06:53:11.811Z,988.20
2023-10-28T06:54:12.676Z,988.22
2023-10-28T06:55:13.717Z,988.25
2023-10-28T06:56:14.300Z,988.26
2023-10-28T06:57:15.167Z,988.28
2023-10-28T06:58:16.016Z,988.29
2023-10-28T06:59:16.957Z,988.32
2023-10-28T07:00:18.012Z,988.34
2023-10-28T07:01:18.426Z,988.35
2023-10-28T07:02:19.337Z,988.37
2023-10-28T07:03:20.364Z,988.37
2023-10-28T07:04:20.771Z,988.38
2023-10-28T07:05:21.623Z,988.39
2023-10-28T07:06:22.557Z,988.40
2023-10-28T07:07:23.384Z,988.41
2023-10-28T07:08:24.274Z,988.42
2023-10-28T07:09:25.111Z,988.43
2023-10-28T07:10:25.944Z,988.44
2023-10-28T07:11:26.820Z,988.45
2023-10-28T07:12:27.665Z,988.46
2023-10-28T07:13:28.494Z,988.47
2023-10-28T07:14:29.455Z,988.48
2023-10-28T07:15:30.297Z,988.49
2023-10-28T07:16:31.175Z,988.50
2023-10-28T07:17:32.082Z,988.52
2023-10-28T07:18:32.987Z,988.54
2023-10-28T07:19:33.841Z,988.55
2023-10-28T07:20:34.732Z,988.57
2023-10-28T07:21:35.639Z,988.58
2023-10-28T07:22:36.494Z,988.59
2023-10-28T07:23:37.330Z,988.61
2023-10-28T07:24:38.176Z,988.62
2023-10-28T07:25:39.009Z,988.63
2023-10-28T07:26:39.898Z,988.63
2023-10-28T07:27:40.739Z,988.63
2023-10-28T07:28:41.570Z,988.63
2023-10-28T07:29:42.435Z,988.63
2023-10-28T07:30:43.281Z,988.64
2023-10-28T07:31:44.181Z,988.63
2023-10-28T07:32:45.056Z,988.64
2023-10-28T07:33:45.930Z,988.63
2023-10-28T07:34:46.757Z,988.62
2023-10-28T07:35:47.581Z,988.64
2023-10-28T07:36:48.503Z,988.64
2023-10-28T07:37:49.457Z,988.66
2023-10-28T07:38:50.354Z,988.69
2023-10-28T07:39:51.201Z,988.71
2023-10-28T07:40:52.064Z,988.71
2023-10-28T07:41:52.935Z,988.70
2023-10-28T07:42:53.755Z,988.70
2023-10-28T07:43:54.650Z,988.71
2023-10-28T07:44:57.241Z,988.73
2023-10-28T07:45:56.164Z,988.74
2023-10-28T07:46:57.056Z,988.72
2023-10-28T07:47:57.980Z,988.72
2023-10-28T07:48:58.871Z,988.72
2023-10-28T07:49:59.745Z,988.70
2023-10-28T07:51:00.602Z,988.70
2023-10-28T07:52:01.474Z,988.69
2023-10-28T07:53:02.457Z,988.69
2023-10-28T07:54:02.843Z,988.69
2023-10-28T07:55:03.697Z,988.71
2023-10-28T07:56:04.580Z,988.72
2023-10-28T07:57:05.436Z,988.73
2023-10-28T07:58:06.313Z,988.73
2023-10-28T07:59:07.201Z,988.72
2023-10-28T08:00:08.061Z,988.71
2023-10-28T08:01:08.909Z,988.71
2023-10-28T08:02:09.820Z,988.71
2023-10-28T08:03:10.852Z,988.70
2023-10-28T08:04:11.297Z,988.70
2023-10-28T08:05:12.237Z,988.70
2023-10-28T08:06:20.263Z,988.70
2023-10-28T08:07:13.869Z,988.70
2023-10-28T08:08:14.792Z,988.69
2023-10-28T08:09:15.640Z,988.69
2023-10-28T08:10:16.464Z,988.69
2023-10-28T08:11:17.338Z,988.70
2023-10-28T08:12:20.040Z,988.72
2023-10-28T08:13:18.982Z,988.72
2023-10-28T08:14:19.884Z,988.73
2023-10-28T08:15:20.870Z,988.73
2023-10-28T08:16:21.712Z,988.73
2023-10-28T08:17:22.577Z,988.73
2023-10-28T08:18:23.613Z,988.73
2023-10-28T08:19:24.008Z,988.74
2023-10-28T08:20:24.919Z,988.78
2023-10-28T08:21:25.421Z,988.79
2023-10-28T08:22:26.261Z,988.80
2023-10-28T08:23:27.165Z,988.79
2023-10-28T08:24:28.009Z,988.79
2023-10-28T08:25:28.859Z,988.78
2023-10-28T08:26:29.729Z,988.79
2023-10-28T08:27:30.566Z,988.78
2023-10-28T08:28:31.439Z,988.79
2023-10-28T08:29:32.278Z,988.80
2023-10-28T08:30:33.149Z,988.80
2023-10-28T08:31:33.986Z,988.81
2023-10-28T08:32:34.886Z,988.80
2023-10-28T08:33:35.765Z,988.81
2023-10-28T08:34:36.618Z,988.82
2023-10-28T08:35:37.443Z,988.81
2023-10-28T08:36:37.008Z,988.82
2023-10-28T08:37:38.851Z,988.83
2023-10-28T08:38:39.843Z,988.84
2023-10-28T08:39:40.704Z,988.84
2023-10-28T08:40:41.531Z,988.85
2023-10-28T08:41:42.374Z,988.87
2023-10-28T08:42:43.245Z,988.87
2023-10-28T08:43:44.277Z,988.87
2023-10-28T08:44:44.686Z,988.89
2023-10-28T08:45:45.635Z,988.89
2023-10-28T08:46:46.494Z,988.89
2023-10-28T08:47:47.361Z,988.89
2023-10-28T08:48:48.193Z,988.89
2023-10-28T08:49:49.075Z,988.89
2023-10-28T08:50:49.918Z,988.91
2023-10-28T08:51:50.750Z,988.92
2023-10-28T08:52:51.686Z,988.94
2023-10-28T08:53:52.574Z,988.95
2023-10-28T08:54:53.462Z,988.95
2023-10-28T08:55:54.334Z,988.97
2023-10-28T08:56:55.185Z,988.98
2023-10-28T08:57:56.025Z,988.98
2023-10-28T08:58:56.888Z,988.99
2023-10-28T08:59:57.779Z,988.98
2023-10-28T09:00:58.805Z,988.99
2023-10-28T09:01:59.217Z,989.00
2023-10-28T09:03:00.192Z,989.01
2023-10-28T09:04:00.702Z,989.02
2023-10-28T09:05:01.589Z,989.05
2023-10-28T09:06:02.423Z,989.07
2023-10-28T09:07:03.292Z,989.08
2023-10-28T09:08:04.134Z,989.11
2023-10-28T09:09:04.977Z,989.12
2023-10-28T09:10:05.904Z,989.09
2023-10-28T09:11:06.797Z,989.11
2023-10-28T09:12:07.678Z,989.12
2023-10-28T09:13:08.547Z,989.14
2023-10-28T09:14:09.420Z,989.16
2023-10-28T09:15:10.268Z,989.18
2023-10-28T09:16:11.278Z,989.18
2023-10-28T09:17:11.650Z,989.19
2023-10-28T09:18:12.516Z,989.20
2023-10-28T09:19:13.362Z,989.20
2023-10-28T09:20:14.276Z,989.21
2023-10-28T09:21:15.137Z,989.21
2023-10-28T09:22:16.005Z,989.21
2023-10-28T09:23:16.970Z,989.20
2023-10-28T09:24:17.865Z,989.20
2023-10-28T09:25:18.722Z,989.17
2023-10-28T09:26:19.693Z,989.15
2023-10-28T09:27:20.164Z,989.15
2023-10-28T09:28:20.991Z,989.15
2023-10-28T09:29:21.914Z,989.15
2023-10-28T09:30:22.760Z,989.15
2023-10-28T09:31:23.693Z,989.14
2023-10-28T09:32:24.546Z,989.15
2023-10-28T09:33:25.512Z,989.16
2023-10-28T09:34:26.388Z,989.18
2023-10-28T09:35:27.240Z,989.21
2023-10-28T09:36:28.105Z,989.21
2023-10-28T09:37:28.964Z,989.21
2023-10-28T09:38:29.838Z,989.21
2023-10-28T09:39:30.684Z,989.20
2023-10-28T09:40:31.530Z,989.22
2023-10-28T09:41:32.400Z,989.22
2023-10-28T09:42:33.260Z,989.24
2023-10-28T09:43:34.180Z,989.24
2023-10-28T09:44:35.063Z,989.28
2023-10-28T09:45:35.887Z,989.30
2023-10-28T09:46:36.934Z,989.31
2023-10-28T09:47:37.845Z,989.32
2023-10-28T09:48:38.776Z,989.34
2023-10-28T09:49:39.615Z,989.35
2023-10-28T09:50:40.448Z,989.35
2023-10-28T09:51:41.316Z,989.34
2023-10-28T09:52:42.166Z,989.33
2023-10-28T09:53:43.010Z,989.33
2023-10-28T09:54:43.861Z,989.33
2023-10-28T09:55:44.692Z,989.32
2023-10-28T09:56:45.567Z,989.31
2023-10-28T09:57:46.418Z,989.30
2023-10-28T09:58:47.252Z,989.29
2023-10-28T09:59:48.284Z,989.28
2023-10-28T10:00:48.836Z,989.28
2023-10-28T10:01:49.822Z,989.29
2023-10-28T10:02:50.729Z,989.30
2023-10-28T10:03:51.593Z,989.30
2023-10-28T10:04:52.505Z,989.28
2023-10-28T10:05:53.365Z,989.28
2023-10-28T10:06:54.232Z,989.27
2023-10-28T10:07:55.094Z,989.28
2023-10-28T10:08:55.932Z,989.26
2023-10-28T10:09:56.776Z,989.27
2023-10-28T10:10:57.756Z,989.30
2023-10-28T10:11:58.648Z,989.29
2023-10-28T10:12:59.481Z,989.29
2023-10-28T10:14:00.353Z,989.30
2023-10-28T10:15:01.209Z,989.31
2023-10-28T10:16:02.158Z,989.30
2023-10-28T10:17:03.170Z,989.32
2023-10-28T10:18:04.081Z,989.33
2023-10-28T10:19:06.323Z,989.34
2023-10-28T10:20:05.793Z,989.34
2023-10-28T10:21:06.733Z,989.34
2023-10-28T10:22:07.691Z,989.34
2023-10-28T10:23:08.591Z,989.35
2023-10-28T10:24:09.453Z,989.35
2023-10-28T10:25:11.053Z,989.35
2023-10-28T10:26:10.916Z,989.37
2023-10-28T10:27:11.797Z,989.38
2023-10-28T10:28:12.630Z,989.37
2023-10-28T10:29:13.498Z,989.36
2023-10-28T10:30:14.457Z,989.36
2023-10-28T10:31:14.915Z,989.36
2023-10-28T10:32:15.934Z,989.37
2023-10-28T10:33:16.295Z,989.38
2023-10-28T10:34:17.127Z,989.36
2023-10-28T10:35:17.984Z,989.36
2023-10-28T10:36:18.861Z,989.36
2023-10-28T10:37:19.758Z,989.36
2023-10-28T10:38:20.651Z,989.35
2023-10-28T10:39:21.571Z,989.35
2023-10-28T10:40:22.433Z,989.33
2023-10-28T10:41:23.320Z,989.36
2023-10-28T10:42:24.222Z,989.35
2023-10-28T10:43:25.074Z,989.35
2023-10-28T10:44:25.994Z,989.34
2023-10-28T10:45:26.941Z,989.35
2023-10-28T10:46:27.789Z,989.34
2023-10-28T10:47:28.778Z,989.33
2023-10-28T10:48:29.125Z,989.34
2023-10-28T10:49:29.947Z,989.32
2023-10-28T10:50:30.854Z,989.33
2023-10-28T10:51:31.725Z,989.32
2023-10-28T10:52:32.592Z,989.31
2023-10-28T10:53:34.067Z,989.30
2023-10-28T10:54:34.405Z,989.29
2023-10-28T10:55:35.262Z,989.28
2023-10-28T10:56:36.106Z,989.29
2023-10-28T10:57:36.986Z,989.28
2023-10-28T10:58:37.838Z,989.25
2023-10-28T10:59:38.700Z,989.26
2023-10-28T11:00:40.061Z,989.26
2023-10-28T11:01:40.441Z,989.29
2023-10-28T11:02:41.490Z,989.27
2023-10-28T11:03:42.009Z,989.29
2023-10-28T11:04:42.904Z,989.32
2023-10-28T11:05:43.736Z,989.35
2023-10-28T11:06:44.593Z,989.32
2023-10-28T11:07:45.472Z,989.30
2023-10-28T11:08:46.292Z,989.27
2023-10-28T11:09:47.305Z,989.28
2023-10-28T11:10:47.805Z,989.27
2023-10-28T11:11:48.638Z,989.26
2023-10-28T11:12:49.535Z,989.27
2023-10-28T11:13:50.379Z,989.26
2023-10-28T11:14:51.214Z,989.28
2023-10-28T11:15:52.100Z,989.28
2023-10-28T11:16:52.963Z,989.26
2023-10-28T11:17:53.941Z,989.26
2023-10-28T11:18:54.348Z,989.25
2023-10-28T11:19:55.222Z,989.22
2023-10-28T11:20:56.054Z,989.22
2023-10-28T11:21:56.867Z,989.22
2023-10-28T11:22:57.761Z,989.20
2023-10-28T11:23:58.617Z,989.20
2023-10-28T11:24:59.486Z,989.19
2023-10-28T11:26:01.053Z,989.19
2023-10-28T11:27:00.877Z,989.17
2023-10-28T11:28:01.772Z,989.17
2023-10-28T11:29:02.649Z,989.15
2023-10-28T11:30:03.544Z,989.16
2023-10-28T11:31:04.417Z,989.14
2023-10-28T11:32:05.288Z,989.15
2023-10-28T11:33:06.255Z,989.14
2023-10-28T11:34:06.642Z,989.15
2023-10-28T11:35:07.474Z,989.14
2023-10-28T11:36:08.320Z,989.11
2023-10-28T11:37:09.149Z,989.10
2023-10-28T11:38:10.043Z,989.10
2023-10-28T11:39:10.895Z,989.10
2023-10-28T11:40:11.737Z,989.10
2023-10-28T11:41:12.624Z,989.10
2023-10-28T11:42:13.490Z,989.08
2023-10-28T11:43:14.323Z,989.12
2023-10-28T11:44:15.168Z,989.11
2023-10-28T11:45:16.015Z,989.10
2023-10-28T11:46:16.855Z,989.11
2023-10-28T11:47:17.769Z,989.10
2023-10-28T11:48:19.590Z,989.09
2023-10-28T11:49:19.434Z,989.08
2023-10-28T11:50:20.307Z,989.09
2023-10-28T11:51:21.154Z,989.07
2023-10-28T11:52:22.064Z,989.05
2023-10-28T11:53:22.945Z,989.03
2023-10-28T11:54:23.829Z,989.02
2023-10-28T11:55:24.665Z,988.97
2023-10-28T11:56:25.530Z,988.95
2023-10-28T11:57:26.446Z,988.92
2023-10-28T11:58:27.268Z,988.89
2023-10-28T11:59:28.125Z,988.87
2023-10-28T12:00:29.001Z,988.87
2023-10-28T12:01:29.902Z,988.84
2023-10-28T12:02:30.804Z,988.86
2023-10-28T12:03:31.728Z,988.87
2023-10-28T12:04:32.555Z,988.87
2023-10-28T12:05:33.401Z,988.85
2023-10-28T12:06:34.252Z,988.86
2023-10-28T12:07:35.152Z,988.89
2023-10-28T12:08:36.004Z,988.89
2023-10-28T12:09:37.005Z,988.89
2023-10-28T12:10:37.438Z,988.88
2023-10-28T12:11:38.262Z,988.87
2023-10-28T12:12:39.150Z,988.87
2023-10-28T12:13:40.008Z,988.85
2023-10-28T12:14:42.340Z,988.83
2023-10-28T12:15:41.405Z,988.85
2023-10-28T12:16:42.300Z,988.87
2023-10-28T12:17:43.247Z,988.89
2023-10-28T12:18:44.141Z,988.89
2023-10-28T12:19:45.070Z,988.88
2023-10-28T12:20:45.497Z,988.90
2023-10-28T12:21:46.341Z,988.91
2023-10-28T12:22:47.300Z,988.90
2023-10-28T12:23:48.138Z,988.90
2023-10-28T12:24:48.993Z,988.89
2023-10-28T12:25:49.834Z,988.90
2023-10-28T12:26:50.706Z,988.90
2023-10-28T12:27:52.158Z,988.94
2023-10-28T12:28:52.388Z,988.94
2023-10-28T12:29:53.229Z,988.94
2023-10-28T12:30:54.074Z,988.94
2023-10-28T12:31:54.994Z,988.93
2023-10-28T12:32:55.889Z,988.95
2023-10-28T12:33:56.852Z,988.92
2023-10-28T12:34:56.395Z,988.93
2023-10-28T12:35:58.259Z,988.94
2023-10-28T12:36:59.143Z,988.94
2023-10-28T12:37:59.999Z,988.90
2023-10-28T12:39:00.857Z,988.92